sensor_id;sensor_type;location;lat;lon;timestamp;temperature;humidity
56771;DHT22;42641;59.794;17.616;2023-08-20T00:00:11;16.20;99.90
56771;DHT22;42641;59.794;17.616;2023-08-20T00:02:45;16.20;99.90
56771;DHT22;42641;59.794;17.616;2023-08-20T00:05:13;16.20;99.90
56771;DHT22;42641;59.794;17.616;2023-08-20T00:07:40;16.30;99.90
56771;DHT22;42641;59.794;17.616;2023-08-20T00:10:07;16.30;99.90
56771;DHT22;42641;59.794;17.616;2023-08-20T00:12:33;16.30;99.90
56771;DHT22;42641;59.794;17.616;2023-08-20T00:15:02;16.40;99.90
56771;DHT22;42641;59.794;17.616;2023-08-20T00:17:34;16.40;99.90
56771;DHT22;42641;59.794;17.616;2023-08-20T00:20:01;16.40;99.90
56771;DHT22;42641;59.794;17.616;2023-08-20T00:22:31;16.40;99.90
56771;DHT22;42641;59.794;17.616;2023-08-20T00:24:58;16.40;99.90
56771;DHT22;42641;59.794;17.616;2023-08-20T00:27:24;16.40;99.90
56771;DHT22;42641;59.794;17.616;2023-08-20T00:29:50;16.40;99.90
56771;DHT22;42641;59.794;17.616;2023-08-20T00:32:17;16.40;99.90
56771;DHT22;42641;59.794;17.616;2023-08-20T00:34:44;16.50;99.90
56771;DHT22;42641;59.794;17.616;2023-08-20T00:37:11;16.40;99.90
56771;DHT22;42641;59.794;17.616;2023-08-20T00:39:38;16.40;99.90
56771;DHT22;42641;59.794;17.616;2023-08-20T00:42:05;16.50;99.90
56771;DHT22;42641;59.794;17.616;2023-08-20T00:44:34;16.50;99.90
56771;DHT22;42641;59.794;17.616;2023-08-20T00:47:02;16.50;99.90
56771;DHT22;42641;59.794;17.616;2023-08-20T00:49:31;16.50;99.90
56771;DHT22;42641;59.794;17.616;2023-08-20T00:51:59;16.50;99.90
56771;DHT22;42641;59.794;17.616;2023-08-20T00:54:26;16.50;99.90
56771;DHT22;42641;59.794;17.616;2023-08-20T00:56:54;16.50;99.90
56771;DHT22;42641;59.794;17.616;2023-08-20T00:59:21;16.40;99.90
56771;DHT22;42641;59.794;17.616;2023-08-20T01:01:48;16.40;99.90
56771;DHT22;42641;59.794;17.616;2023-08-20T01:04:14;16.50;99.90
56771;DHT22;42641;59.794;17.616;2023-08-20T01:06:55;16.50;99.90
56771;DHT22;42641;59.794;17.616;2023-08-20T01:09:50;16.50;99.90
56771;DHT22;42641;59.794;17.616;2023-08-20T01:12:22;16.50;99.90
56771;DHT22;42641;59.794;17.616;2023-08-20T01:14:51;16.40;99.90
56771;DHT22;42641;59.794;17.616;2023-08-20T01:17:17;16.40;99.90
56771;DHT22;42641;59.794;17.616;2023-08-20T01:19:45;16.40;99.90
56771;DHT22;42641;59.794;17.616;2023-08-20T01:22:46;16.30;99.90
56771;DHT22;42641;59.794;17.616;2023-08-20T01:30:51;16.40;99.90
56771;DHT22;42641;59.794;17.616;2023-08-20T01:33:19;16.50;99.90
56771;DHT22;42641;59.794;17.616;2023-08-20T01:35:46;16.50;99.90
56771;DHT22;42641;59.794;17.616;2023-08-20T01:38:15;16.50;99.90
56771;DHT22;42641;59.794;17.616;2023-08-20T01:40:42;16.50;99.90
56771;DHT22;42641;59.794;17.616;2023-08-20T01:43:08;16.50;99.90
56771;DHT22;42641;59.794;17.616;2023-08-20T01:45:35;16.50;99.90
56771;DHT22;42641;59.794;17.616;2023-08-20T01:48:02;16.50;99.90
56771;DHT22;42641;59.794;17.616;2023-08-20T01:50:30;16.50;99.90
56771;DHT22;42641;59.794;17.616;2023-08-20T01:52:57;16.50;99.90
56771;DHT22;42641;59.794;17.616;2023-08-20T01:55:23;16.50;99.90
56771;DHT22;42641;59.794;17.616;2023-08-20T01:57:49;16.50;99.90
56771;DHT22;42641;59.794;17.616;2023-08-20T02:00:16;16.50;99.90
56771;DHT22;42641;59.794;17.616;2023-08-20T02:02:42;16.60;99.90
56771;DHT22;42641;59.794;17.616;2023-08-20T02:05:09;16.60;99.90
56771;DHT22;42641;59.794;17.616;2023-08-20T02:07:38;16.60;99.90
56771;DHT22;42641;59.794;17.616;2023-08-20T02:10:05;16.60;99.90
56771;DHT22;42641;59.794;17.616;2023-08-20T02:12:32;16.60;99.90
56771;DHT22;42641;59.794;17.616;2023-08-20T02:14:58;16.60;99.90
56771;DHT22;42641;59.794;17.616;2023-08-20T02:17:25;16.60;99.90
56771;DHT22;42641;59.794;17.616;2023-08-20T02:19:53;16.70;99.90
56771;DHT22;42641;59.794;17.616;2023-08-20T02:22:19;16.60;99.90
56771;DHT22;42641;59.794;17.616;2023-08-20T02:24:47;16.70;99.90
56771;DHT22;42641;59.794;17.616;2023-08-20T02:27:15;16.70;99.90
56771;DHT22;42641;59.794;17.616;2023-08-20T02:29:43;16.70;99.90
56771;DHT22;42641;59.794;17.616;2023-08-20T02:32:15;16.70;99.90
56771;DHT22;42641;59.794;17.616;2023-08-20T02:34:41;16.60;99.90
56771;DHT22;42641;59.794;17.616;2023-08-20T02:37:07;16.60;99.90
56771;DHT22;42641;59.794;17.616;2023-08-20T02:39:34;16.60;99.90
56771;DHT22;42641;59.794;17.616;2023-08-20T02:42:01;16.60;99.90
56771;DHT22;42641;59.794;17.616;2023-08-20T02:44:28;16.60;99.90
56771;DHT22;42641;59.794;17.616;2023-08-20T02:46:55;16.60;99.90
56771;DHT22;42641;59.794;17.616;2023-08-20T02:49:21;16.60;99.90
56771;DHT22;42641;59.794;17.616;2023-08-20T02:51:48;16.60;99.90
56771;DHT22;42641;59.794;17.616;2023-08-20T02:54:14;16.60;99.90
56771;DHT22;42641;59.794;17.616;2023-08-20T02:56:41;16.50;99.90
56771;DHT22;42641;59.794;17.616;2023-08-20T02:59:08;16.50;99.90
56771;DHT22;42641;59.794;17.616;2023-08-20T03:01:34;16.40;99.90
56771;DHT22;42641;59.794;17.616;2023-08-20T03:04:01;16.40;99.90
56771;DHT22;42641;59.794;17.616;2023-08-20T03:06:27;16.40;99.90
56771;DHT22;42641;59.794;17.616;2023-08-20T03:08:53;16.30;99.90
56771;DHT22;42641;59.794;17.616;2023-08-20T03:11:20;16.30;99.90
56771;DHT22;42641;59.794;17.616;2023-08-20T03:13:46;16.30;99.90
56771;DHT22;42641;59.794;17.616;2023-08-20T03:16:13;16.20;99.90
56771;DHT22;42641;59.794;17.616;2023-08-20T03:18:39;16.10;99.90
56771;DHT22;42641;59.794;17.616;2023-08-20T03:21:06;16.10;99.90
56771;DHT22;42641;59.794;17.616;2023-08-20T03:23:32;16.10;99.90
56771;DHT22;42641;59.794;17.616;2023-08-20T03:25:58;16.10;99.90
56771;DHT22;42641;59.794;17.616;2023-08-20T03:28:25;16.00;99.90
56771;DHT22;42641;59.794;17.616;2023-08-20T03:30:53;16.00;99.90
56771;DHT22;42641;59.794;17.616;2023-08-20T03:33:23;16.00;99.90
56771;DHT22;42641;59.794;17.616;2023-08-20T03:35:50;15.90;99.90
56771;DHT22;42641;59.794;17.616;2023-08-20T03:38:16;15.90;99.90
56771;DHT22;42641;59.794;17.616;2023-08-20T03:40:43;15.90;99.90
56771;DHT22;42641;59.794;17.616;2023-08-20T03:43:11;15.80;99.90
56771;DHT22;42641;59.794;17.616;2023-08-20T03:45:37;15.80;99.90
56771;DHT22;42641;59.794;17.616;2023-08-20T03:48:04;15.80;99.90
56771;DHT22;42641;59.794;17.616;2023-08-20T03:50:31;15.80;99.90
56771;DHT22;42641;59.794;17.616;2023-08-20T03:52:57;15.80;99.90
56771;DHT22;42641;59.794;17.616;2023-08-20T03:55:23;15.80;99.90
56771;DHT22;42641;59.794;17.616;2023-08-20T03:57:52;15.80;99.90
56771;DHT22;42641;59.794;17.616;2023-08-20T04:00:19;15.80;99.90
56771;DHT22;42641;59.794;17.616;2023-08-20T04:02:45;15.80;99.90
56771;DHT22;42641;59.794;17.616;2023-08-20T04:05:12;15.80;99.90
56771;DHT22;42641;59.794;17.616;2023-08-20T04:07:38;15.80;99.90
56771;DHT22;42641;59.794;17.616;2023-08-20T04:10:05;15.80;99.90
56771;DHT22;42641;59.794;17.616;2023-08-20T04:12:35;15.80;99.90
56771;DHT22;42641;59.794;17.616;2023-08-20T04:15:02;15.80;99.90
56771;DHT22;42641;59.794;17.616;2023-08-20T04:17:29;15.80;99.90
56771;DHT22;42641;59.794;17.616;2023-08-20T04:19:55;15.90;99.90
56771;DHT22;42641;59.794;17.616;2023-08-20T04:22:22;15.90;99.90
56771;DHT22;42641;59.794;17.616;2023-08-20T04:24:48;16.00;99.90
56771;DHT22;42641;59.794;17.616;2023-08-20T04:27:14;16.10;99.90
56771;DHT22;42641;59.794;17.616;2023-08-20T04:29:43;16.10;99.90
56771;DHT22;42641;59.794;17.616;2023-08-20T04:32:09;16.10;99.90
56771;DHT22;42641;59.794;17.616;2023-08-20T04:34:36;16.20;99.90
56771;DHT22;42641;59.794;17.616;2023-08-20T04:37:02;16.30;99.90
56771;DHT22;42641;59.794;17.616;2023-08-20T04:39:29;16.30;99.90
56771;DHT22;42641;59.794;17.616;2023-08-20T04:41:55;16.30;99.90
56771;DHT22;42641;59.794;17.616;2023-08-20T04:44:23;16.40;99.90
56771;DHT22;42641;59.794;17.616;2023-08-20T04:46:53;16.40;99.90
56771;DHT22;42641;59.794;17.616;2023-08-20T04:49:19;16.40;99.90
56771;DHT22;42641;59.794;17.616;2023-08-20T04:51:46;16.40;99.90
56771;DHT22;42641;59.794;17.616;2023-08-20T04:54:12;16.40;99.90
56771;DHT22;42641;59.794;17.616;2023-08-20T04:56:39;16.50;99.90
56771;DHT22;42641;59.794;17.616;2023-08-20T04:59:06;16.60;99.90
56771;DHT22;42641;59.794;17.616;2023-08-20T05:02:01;16.60;99.90
56771;DHT22;42641;59.794;17.616;2023-08-20T05:04:41;16.70;99.90
56771;DHT22;42641;59.794;17.616;2023-08-20T05:07:08;16.70;99.90
56771;DHT22;42641;59.794;17.616;2023-08-20T05:09:35;16.70;99.90
56771;DHT22;42641;59.794;17.616;2023-08-20T05:12:02;16.70;99.90
56771;DHT22;42641;59.794;17.616;2023-08-20T05:14:29;16.70;99.90
56771;DHT22;42641;59.794;17.616;2023-08-20T05:16:57;16.80;99.90
56771;DHT22;42641;59.794;17.616;2023-08-20T05:19:23;16.80;99.90
56771;DHT22;42641;59.794;17.616;2023-08-20T05:21:50;16.90;99.90
56771;DHT22;42641;59.794;17.616;2023-08-20T05:24:16;16.90;99.90
56771;DHT22;42641;59.794;17.616;2023-08-20T05:26:43;17.00;99.90
56771;DHT22;42641;59.794;17.616;2023-08-20T05:29:09;17.20;99.90
56771;DHT22;42641;59.794;17.616;2023-08-20T05:31:36;17.20;99.90
56771;DHT22;42641;59.794;17.616;2023-08-20T05:34:02;17.30;99.90
56771;DHT22;42641;59.794;17.616;2023-08-20T05:36:29;17.30;99.90
56771;DHT22;42641;59.794;17.616;2023-08-20T05:38:56;17.30;99.90
56771;DHT22;42641;59.794;17.616;2023-08-20T05:41:22;17.40;99.90
56771;DHT22;42641;59.794;17.616;2023-08-20T05:43:49;17.50;99.90
56771;DHT22;42641;59.794;17.616;2023-08-20T05:46:15;17.60;99.90
56771;DHT22;42641;59.794;17.616;2023-08-20T05:48:41;17.60;99.90
56771;DHT22;42641;59.794;17.616;2023-08-20T05:51:08;17.60;99.90
56771;DHT22;42641;59.794;17.616;2023-08-20T05:53:37;17.70;99.90
56771;DHT22;42641;59.794;17.616;2023-08-20T05:56:04;17.70;99.90
56771;DHT22;42641;59.794;17.616;2023-08-20T05:58:30;17.70;99.90
56771;DHT22;42641;59.794;17.616;2023-08-20T06:00:57;17.80;99.90
56771;DHT22;42641;59.794;17.616;2023-08-20T06:03:23;17.90;99.90
56771;DHT22;42641;59.794;17.616;2023-08-20T06:05:50;18.00;99.90
56771;DHT22;42641;59.794;17.616;2023-08-20T06:08:16;18.00;99.90
56771;DHT22;42641;59.794;17.616;2023-08-20T06:10:42;18.00;99.90
56771;DHT22;42641;59.794;17.616;2023-08-20T06:13:10;18.00;99.90
56771;DHT22;42641;59.794;17.616;2023-08-20T06:15:36;18.10;99.90
56771;DHT22;42641;59.794;17.616;2023-08-20T06:18:03;18.10;99.90
56771;DHT22;42641;59.794;17.616;2023-08-20T06:20:29;18.20;99.90
56771;DHT22;42641;59.794;17.616;2023-08-20T06:22:56;18.20;99.90
56771;DHT22;42641;59.794;17.616;2023-08-20T06:25:22;18.30;99.90
56771;DHT22;42641;59.794;17.616;2023-08-20T06:27:48;18.30;99.90
56771;DHT22;42641;59.794;17.616;2023-08-20T06:30:15;18.50;99.90
56771;DHT22;42641;59.794;17.616;2023-08-20T06:32:43;18.50;99.90
56771;DHT22;42641;59.794;17.616;2023-08-20T06:35:10;18.50;99.90
56771;DHT22;42641;59.794;17.616;2023-08-20T06:37:38;18.60;99.90
56771;DHT22;42641;59.794;17.616;2023-08-20T06:40:06;18.60;99.90
56771;DHT22;42641;59.794;17.616;2023-08-20T06:42:33;18.70;99.90
56771;DHT22;42641;59.794;17.616;2023-08-20T06:44:59;18.80;99.90
56771;DHT22;42641;59.794;17.616;2023-08-20T06:47:26;18.80;99.90
56771;DHT22;42641;59.794;17.616;2023-08-20T06:49:52;18.80;99.90
56771;DHT22;42641;59.794;17.616;2023-08-20T06:52:18;18.90;99.90
56771;DHT22;42641;59.794;17.616;2023-08-20T06:54:45;19.00;99.90
56771;DHT22;42641;59.794;17.616;2023-08-20T06:57:11;19.00;99.90
56771;DHT22;42641;59.794;17.616;2023-08-20T06:59:37;18.90;99.90
56771;DHT22;42641;59.794;17.616;2023-08-20T07:02:04;19.00;99.90
56771;DHT22;42641;59.794;17.616;2023-08-20T07:04:30;19.10;99.90
56771;DHT22;42641;59.794;17.616;2023-08-20T07:06:57;19.20;99.90
56771;DHT22;42641;59.794;17.616;2023-08-20T07:09:24;19.20;99.90
56771;DHT22;42641;59.794;17.616;2023-08-20T07:11:51;19.30;99.90
56771;DHT22;42641;59.794;17.616;2023-08-20T07:14:17;19.30;99.90
56771;DHT22;42641;59.794;17.616;2023-08-20T07:16:44;19.30;99.90
56771;DHT22;42641;59.794;17.616;2023-08-20T07:19:10;19.40;99.90
56771;DHT22;42641;59.794;17.616;2023-08-20T07:21:37;19.50;99.90
56771;DHT22;42641;59.794;17.616;2023-08-20T07:24:03;19.60;99.90
56771;DHT22;42641;59.794;17.616;2023-08-20T07:26:30;19.40;99.90
56771;DHT22;42641;59.794;17.616;2023-08-20T07:28:56;19.40;99.90
56771;DHT22;42641;59.794;17.616;2023-08-20T07:31:24;19.40;99.90
56771;DHT22;42641;59.794;17.616;2023-08-20T07:33:51;19.50;99.90
56771;DHT22;42641;59.794;17.616;2023-08-20T07:36:19;19.50;99.90
56771;DHT22;42641;59.794;17.616;2023-08-20T07:38:48;19.50;99.90
56771;DHT22;42641;59.794;17.616;2023-08-20T07:41:15;19.50;99.90
56771;DHT22;42641;59.794;17.616;2023-08-20T07:43:41;19.70;99.90
56771;DHT22;42641;59.794;17.616;2023-08-20T07:46:09;19.90;99.90
56771;DHT22;42641;59.794;17.616;2023-08-20T07:48:35;20.10;99.90
56771;DHT22;42641;59.794;17.616;2023-08-20T07:51:02;20.00;99.90
56771;DHT22;42641;59.794;17.616;2023-08-20T07:53:30;20.00;99.90
56771;DHT22;42641;59.794;17.616;2023-08-20T07:55:57;20.00;99.90
56771;DHT22;42641;59.794;17.616;2023-08-20T07:58:23;20.00;99.90
56771;DHT22;42641;59.794;17.616;2023-08-20T08:00:50;20.00;99.90
56771;DHT22;42641;59.794;17.616;2023-08-20T08:03:16;20.00;99.90
56771;DHT22;42641;59.794;17.616;2023-08-20T08:05:50;20.10;99.90
56771;DHT22;42641;59.794;17.616;2023-08-20T08:08:18;20.10;99.90
56771;DHT22;42641;59.794;17.616;2023-08-20T08:10:45;20.10;99.90
56771;DHT22;42641;59.794;17.616;2023-08-20T08:13:18;20.20;99.90
56771;DHT22;42641;59.794;17.616;2023-08-20T08:15:44;20.20;99.90
56771;DHT22;42641;59.794;17.616;2023-08-20T08:18:11;20.30;99.90
56771;DHT22;42641;59.794;17.616;2023-08-20T08:20:38;20.40;99.90
56771;DHT22;42641;59.794;17.616;2023-08-20T08:23:04;20.30;99.90
56771;DHT22;42641;59.794;17.616;2023-08-20T08:25:31;20.30;99.90
56771;DHT22;42641;59.794;17.616;2023-08-20T08:27:57;20.40;99.90
56771;DHT22;42641;59.794;17.616;2023-08-20T08:30:24;20.40;99.90
56771;DHT22;42641;59.794;17.616;2023-08-20T08:32:50;20.50;99.90
56771;DHT22;42641;59.794;17.616;2023-08-20T08:35:17;20.60;99.90
56771;DHT22;42641;59.794;17.616;2023-08-20T08:37:44;20.60;99.90
56771;DHT22;42641;59.794;17.616;2023-08-20T08:40:11;20.50;99.90
56771;DHT22;42641;59.794;17.616;2023-08-20T08:42:37;20.50;99.90
56771;DHT22;42641;59.794;17.616;2023-08-20T08:45:05;20.50;99.90
56771;DHT22;42641;59.794;17.616;2023-08-20T08:47:32;20.40;99.90
56771;DHT22;42641;59.794;17.616;2023-08-20T08:49:58;20.50;99.90
56771;DHT22;42641;59.794;17.616;2023-08-20T08:52:26;20.50;99.90
56771;DHT22;42641;59.794;17.616;2023-08-20T08:54:53;20.50;99.90
56771;DHT22;42641;59.794;17.616;2023-08-20T08:57:19;20.50;99.90
56771;DHT22;42641;59.794;17.616;2023-08-20T08:59:46;20.40;99.90
56771;DHT22;42641;59.794;17.616;2023-08-20T09:02:13;20.40;99.90
56771;DHT22;42641;59.794;17.616;2023-08-20T09:04:41;20.40;99.90
56771;DHT22;42641;59.794;17.616;2023-08-20T09:07:15;20.50;99.90
56771;DHT22;42641;59.794;17.616;2023-08-20T09:09:45;20.50;99.90
56771;DHT22;42641;59.794;17.616;2023-08-20T09:12:16;20.40;99.90
56771;DHT22;42641;59.794;17.616;2023-08-20T09:14:50;20.30;99.90
56771;DHT22;42641;59.794;17.616;2023-08-20T09:17:17;20.40;99.90
56771;DHT22;42641;59.794;17.616;2023-08-20T09:19:45;20.40;99.90
56771;DHT22;42641;59.794;17.616;2023-08-20T09:22:12;20.40;99.90
56771;DHT22;42641;59.794;17.616;2023-08-20T09:24:45;20.30;99.90
56771;DHT22;42641;59.794;17.616;2023-08-20T09:27:12;20.40;99.90
56771;DHT22;42641;59.794;17.616;2023-08-20T09:30:06;20.30;99.90
56771;DHT22;42641;59.794;17.616;2023-08-20T09:32:33;20.30;99.90
56771;DHT22;42641;59.794;17.616;2023-08-20T09:34:59;20.20;99.90
56771;DHT22;42641;59.794;17.616;2023-08-20T09:37:26;20.20;99.90
56771;DHT22;42641;59.794;17.616;2023-08-20T09:39:53;20.30;99.90
56771;DHT22;42641;59.794;17.616;2023-08-20T09:42:19;20.40;99.90
56771;DHT22;42641;59.794;17.616;2023-08-20T09:44:46;20.40;99.90
56771;DHT22;42641;59.794;17.616;2023-08-20T09:47:16;20.40;99.90
56771;DHT22;42641;59.794;17.616;2023-08-20T09:49:44;20.50;99.90
56771;DHT22;42641;59.794;17.616;2023-08-20T09:52:58;20.50;99.90
56771;DHT22;42641;59.794;17.616;2023-08-20T09:55:09;20.60;99.90
56771;DHT22;42641;59.794;17.616;2023-08-20T09:57:37;20.70;99.90
56771;DHT22;42641;59.794;17.616;2023-08-20T10:00:06;20.70;99.90
56771;DHT22;42641;59.794;17.616;2023-08-20T10:02:43;20.80;99.90
56771;DHT22;42641;59.794;17.616;2023-08-20T10:05:11;20.90;99.90
56771;DHT22;42641;59.794;17.616;2023-08-20T10:07:38;20.90;99.90
56771;DHT22;42641;59.794;17.616;2023-08-20T10:10:07;20.90;99.90
56771;DHT22;42641;59.794;17.616;2023-08-20T10:12:34;20.80;99.90
56771;DHT22;42641;59.794;17.616;2023-08-20T10:15:02;20.80;99.90
56771;DHT22;42641;59.794;17.616;2023-08-20T10:17:36;20.70;99.90
56771;DHT22;42641;59.794;17.616;2023-08-20T10:20:04;20.70;99.90
56771;DHT22;42641;59.794;17.616;2023-08-20T10:22:40;20.60;99.90
56771;DHT22;42641;59.794;17.616;2023-08-20T10:25:09;20.50;99.90
56771;DHT22;42641;59.794;17.616;2023-08-20T10:27:40;20.50;99.90
56771;DHT22;42641;59.794;17.616;2023-08-20T10:30:19;20.60;99.90
56771;DHT22;42641;59.794;17.616;2023-08-20T10:32:49;20.50;99.90
56771;DHT22;42641;59.794;17.616;2023-08-20T10:35:18;20.50;99.90
56771;DHT22;42641;59.794;17.616;2023-08-20T10:38:01;20.50;99.90
56771;DHT22;42641;59.794;17.616;2023-08-20T10:43:38;20.80;99.90
56771;DHT22;42641;59.794;17.616;2023-08-20T10:46:24;20.90;99.90
56771;DHT22;42641;59.794;17.616;2023-08-20T10:48:56;20.90;99.90
56771;DHT22;42641;59.794;17.616;2023-08-20T10:51:27;21.00;99.90
56771;DHT22;42641;59.794;17.616;2023-08-20T10:56:45;21.00;99.90
56771;DHT22;42641;59.794;17.616;2023-08-20T10:59:41;20.90;99.90
56771;DHT22;42641;59.794;17.616;2023-08-20T11:02:12;20.90;99.90
56771;DHT22;42641;59.794;17.616;2023-08-20T11:04:41;20.90;99.90
56771;DHT22;42641;59.794;17.616;2023-08-20T11:07:08;20.90;99.90
56771;DHT22;42641;59.794;17.616;2023-08-20T11:09:34;20.80;99.90
56771;DHT22;42641;59.794;17.616;2023-08-20T11:12:01;20.70;99.90
56771;DHT22;42641;59.794;17.616;2023-08-20T11:14:28;20.70;99.90
56771;DHT22;42641;59.794;17.616;2023-08-20T11:16:54;20.70;99.90
56771;DHT22;42641;59.794;17.616;2023-08-20T11:19:23;20.70;99.90
56771;DHT22;42641;59.794;17.616;2023-08-20T11:21:50;20.70;99.90
56771;DHT22;42641;59.794;17.616;2023-08-20T11:24:17;20.70;99.90
56771;DHT22;42641;59.794;17.616;2023-08-20T11:26:45;20.80;99.90
56771;DHT22;42641;59.794;17.616;2023-08-20T11:29:13;20.70;99.90
56771;DHT22;42641;59.794;17.616;2023-08-20T11:31:42;20.70;99.90
56771;DHT22;42641;59.794;17.616;2023-08-20T11:34:08;20.70;99.90
56771;DHT22;42641;59.794;17.616;2023-08-20T11:36:35;20.70;99.90
56771;DHT22;42641;59.794;17.616;2023-08-20T11:39:02;20.70;99.90
56771;DHT22;42641;59.794;17.616;2023-08-20T11:41:29;20.70;99.90
56771;DHT22;42641;59.794;17.616;2023-08-20T11:43:55;20.70;99.90
56771;DHT22;42641;59.794;17.616;2023-08-20T11:46:23;20.50;99.90
56771;DHT22;42641;59.794;17.616;2023-08-20T11:49:07;20.60;99.90
56771;DHT22;42641;59.794;17.616;2023-08-20T11:51:41;20.60;99.90
56771;DHT22;42641;59.794;17.616;2023-08-20T11:54:12;20.50;99.90
56771;DHT22;42641;59.794;17.616;2023-08-20T11:56:47;20.60;99.90
56771;DHT22;42641;59.794;17.616;2023-08-20T11:59:15;20.60;99.90
56771;DHT22;42641;59.794;17.616;2023-08-20T12:01:42;20.70;99.90
56771;DHT22;42641;59.794;17.616;2023-08-20T12:04:10;20.70;99.90
56771;DHT22;42641;59.794;17.616;2023-08-20T12:06:37;20.80;99.90
56771;DHT22;42641;59.794;17.616;2023-08-20T12:09:20;21.00;99.90
56771;DHT22;42641;59.794;17.616;2023-08-20T12:11:54;21.00;99.90
56771;DHT22;42641;59.794;17.616;2023-08-20T12:14:24;21.30;99.90
56771;DHT22;42641;59.794;17.616;2023-08-20T12:16:51;21.50;99.90
56771;DHT22;42641;59.794;17.616;2023-08-20T12:19:17;21.50;99.90
56771;DHT22;42641;59.794;17.616;2023-08-20T12:21:44;21.40;99.90
56771;DHT22;42641;59.794;17.616;2023-08-20T12:24:11;21.40;99.90
56771;DHT22;42641;59.794;17.616;2023-08-20T12:26:38;21.30;99.90
56771;DHT22;42641;59.794;17.616;2023-08-20T12:29:05;21.10;99.90
56771;DHT22;42641;59.794;17.616;2023-08-20T12:31:32;21.00;99.90
56771;DHT22;42641;59.794;17.616;2023-08-20T12:33:59;21.00;99.90
56771;DHT22;42641;59.794;17.616;2023-08-20T12:36:26;20.90;99.90
56771;DHT22;42641;59.794;17.616;2023-08-20T12:38:53;20.80;99.90
56771;DHT22;42641;59.794;17.616;2023-08-20T12:41:20;20.70;99.90
56771;DHT22;42641;59.794;17.616;2023-08-20T12:43:46;20.70;99.90
56771;DHT22;42641;59.794;17.616;2023-08-20T12:46:13;20.70;99.90
56771;DHT22;42641;59.794;17.616;2023-08-20T12:48:40;20.70;99.90
56771;DHT22;42641;59.794;17.616;2023-08-20T12:51:06;20.70;99.90
56771;DHT22;42641;59.794;17.616;2023-08-20T12:53:34;20.70;99.90
56771;DHT22;42641;59.794;17.616;2023-08-20T12:56:00;20.70;99.90
56771;DHT22;42641;59.794;17.616;2023-08-20T12:58:27;20.70;99.90
56771;DHT22;42641;59.794;17.616;2023-08-20T13:00:53;20.60;99.90
56771;DHT22;42641;59.794;17.616;2023-08-20T13:03:20;20.60;99.90
56771;DHT22;42641;59.794;17.616;2023-08-20T13:05:47;20.50;99.90
56771;DHT22;42641;59.794;17.616;2023-08-20T13:08:14;20.40;99.90
56771;DHT22;42641;59.794;17.616;2023-08-20T13:10:41;20.30;99.90
56771;DHT22;42641;59.794;17.616;2023-08-20T13:13:10;20.20;99.90
56771;DHT22;42641;59.794;17.616;2023-08-20T13:15:37;20.20;99.90
56771;DHT22;42641;59.794;17.616;2023-08-20T13:18:04;20.20;99.90
56771;DHT22;42641;59.794;17.616;2023-08-20T13:20:33;20.10;99.90
56771;DHT22;42641;59.794;17.616;2023-08-20T13:23:00;20.10;99.90
56771;DHT22;42641;59.794;17.616;2023-08-20T13:25:26;20.10;99.90
56771;DHT22;42641;59.794;17.616;2023-08-20T13:27:53;20.10;99.90
56771;DHT22;42641;59.794;17.616;2023-08-20T13:30:19;20.10;99.90
56771;DHT22;42641;59.794;17.616;2023-08-20T13:32:45;20.20;99.90
56771;DHT22;42641;59.794;17.616;2023-08-20T13:35:12;20.20;99.90
56771;DHT22;42641;59.794;17.616;2023-08-20T13:37:40;20.20;99.90
56771;DHT22;42641;59.794;17.616;2023-08-20T13:40:07;20.20;99.90
56771;DHT22;42641;59.794;17.616;2023-08-20T13:42:36;20.20;99.90
56771;DHT22;42641;59.794;17.616;2023-08-20T13:45:03;20.10;99.90
56771;DHT22;42641;59.794;17.616;2023-08-20T13:47:30;20.10;99.90
56771;DHT22;42641;59.794;17.616;2023-08-20T13:49:57;20.10;99.90
56771;DHT22;42641;59.794;17.616;2023-08-20T13:52:23;20.00;99.90
56771;DHT22;42641;59.794;17.616;2023-08-20T13:54:50;20.00;99.90
56771;DHT22;42641;59.794;17.616;2023-08-20T13:57:16;20.00;99.90
56771;DHT22;42641;59.794;17.616;2023-08-20T13:59:43;20.00;99.90
56771;DHT22;42641;59.794;17.616;2023-08-20T14:02:09;19.90;99.90
56771;DHT22;42641;59.794;17.616;2023-08-20T14:04:35;19.90;99.90
56771;DHT22;42641;59.794;17.616;2023-08-20T14:07:02;19.60;99.90
56771;DHT22;42641;59.794;17.616;2023-08-20T14:09:29;19.30;99.90
56771;DHT22;42641;59.794;17.616;2023-08-20T14:11:55;19.10;99.90
56771;DHT22;42641;59.794;17.616;2023-08-20T14:14:22;19.10;99.90
56771;DHT22;42641;59.794;17.616;2023-08-20T14:16:49;19.00;99.90
56771;DHT22;42641;59.794;17.616;2023-08-20T14:19:15;18.90;99.90
56771;DHT22;42641;59.794;17.616;2023-08-20T14:21:42;18.90;99.90
56771;DHT22;42641;59.794;17.616;2023-08-20T14:24:08;18.90;99.90
56771;DHT22;42641;59.794;17.616;2023-08-20T14:26:34;18.90;99.90
56771;DHT22;42641;59.794;17.616;2023-08-20T14:29:01;19.00;99.90
56771;DHT22;42641;59.794;17.616;2023-08-20T14:31:28;19.00;99.90
56771;DHT22;42641;59.794;17.616;2023-08-20T14:33:54;19.00;99.90
56771;DHT22;42641;59.794;17.616;2023-08-20T14:36:21;19.10;99.90
56771;DHT22;42641;59.794;17.616;2023-08-20T14:38:47;19.10;99.90
56771;DHT22;42641;59.794;17.616;2023-08-20T14:41:14;19.10;99.90
56771;DHT22;42641;59.794;17.616;2023-08-20T14:43:41;19.10;99.90
56771;DHT22;42641;59.794;17.616;2023-08-20T14:46:08;19.00;99.90
56771;DHT22;42641;59.794;17.616;2023-08-20T14:48:34;19.00;99.90
56771;DHT22;42641;59.794;17.616;2023-08-20T14:51:01;19.00;99.90
56771;DHT22;42641;59.794;17.616;2023-08-20T14:53:29;19.00;99.90
56771;DHT22;42641;59.794;17.616;2023-08-20T14:55:55;19.00;99.90
56771;DHT22;42641;59.794;17.616;2023-08-20T14:58:22;18.90;99.90
56771;DHT22;42641;59.794;17.616;2023-08-20T15:00:48;18.90;99.90
56771;DHT22;42641;59.794;17.616;2023-08-20T15:03:15;19.00;99.90
56771;DHT22;42641;59.794;17.616;2023-08-20T15:05:42;19.00;99.90
56771;DHT22;42641;59.794;17.616;2023-08-20T15:08:09;19.00;99.90
56771;DHT22;42641;59.794;17.616;2023-08-20T15:10:35;19.00;99.90
56771;DHT22;42641;59.794;17.616;2023-08-20T15:13:02;18.90;99.90
56771;DHT22;42641;59.794;17.616;2023-08-20T15:15:29;18.90;99.90
56771;DHT22;42641;59.794;17.616;2023-08-20T15:17:55;18.90;99.90
56771;DHT22;42641;59.794;17.616;2023-08-20T15:20:22;18.80;99.90
56771;DHT22;42641;59.794;17.616;2023-08-20T15:22:49;18.80;99.90
56771;DHT22;42641;59.794;17.616;2023-08-20T15:25:15;18.70;99.90
56771;DHT22;42641;59.794;17.616;2023-08-20T15:27:42;18.70;99.90
56771;DHT22;42641;59.794;17.616;2023-08-20T15:30:09;18.60;99.90